Time;durP1;ratioP1;P1;durP2;ratioP2;P2;SDS_P1;SDS_P2;PMS_P1;PMS_P2;Temp;Humidity;BMP_temperature;BMP_pressure;BME280_temperature;BME280_humidity;BME280_pressure;Samples;Min_cycle;Max_cycle;Signal;HPM_P1;HPM_P2
2022/04/01 00:00:39;;;;;;;;;;;;;;;;;;2073215;28;19914;-80
2022/04/01 00:01:53;;;;;;;;;;;;;;;;;;2064687;28;19921;-79
2022/04/01 00:03:04;;;;;;;;;;;;;;;;;;2069655;28;20041;-80
2022/04/01 00:04:25;;;;;;;;;;;;;;;;;;2074529;28;20359;-79
2022/04/01 00:05:36;;;;;;;;;;;;;;;;;;;;;
2022/04/01 00:06:39;;;;;;;;;;;;;;;;;;2070666;28;20345;-79
2022/04/01 00:07:42;;;;;;;;;;;;;;;;;;2074823;28;19913;-79
2022/04/01 00:08:52;;;;;;;;;;;;;;;;;;2074629;28;20294;-78
2022/04/01 00:09:56;;;;;;;;;;;;;;;;;;2066249;28;19913;-80
2022/04/01 00:10:56;;;;;;;;;;;;;;;;;;2068009;28;20314;-82
2022/04/01 00:11:59;;;;;;;;;;;;;;;;;;2066309;28;19925;-79
2022/04/01 00:13:07;;;;;;;;;;;;;;;;;;2065872;28;19960;-79
2022/04/01 00:14:15;;;;;;;;;;;;;;;;;;2066417;28;19920;-81
2022/04/01 00:15:26;;;;;;;;;;;;;;;;;;2066114;28;19921;-79
2022/04/01 00:16:26;;;;;;;;;;;;;;;;;;2067836;28;20275;-81
2022/04/01 00:17:29;;;;;;;;;;;;;;;;;;2074571;28;19927;-78
2022/04/01 00:18:37;;;;;;;;;;;;;;;;;;2074900;28;19917;-81
2022/04/01 00:19:37;;;;;;;;;;;;;;;;;;2074920;28;20275;-78
2022/04/01 00:20:42;;;;;;;;;;;;;;;;;;2074762;28;19920;-79
2022/04/01 00:21:44;;;;;;;;;;;;;;;;;;2074555;28;19914;-80
2022/04/01 00:22:48;;;;;;;;;;;;;;;;;;2065818;28;19913;-78
2022/04/01 00:25:30;;;;;;;;;;;;;;;;;;2074534;28;19971;-79
2022/04/01 00:26:30;;;;;;;;;;;;;;;;;;2074545;28;19913;-80
2022/04/01 00:27:33;;;;;;;;;;;;;;;;;;2074538;28;19913;-79
2022/04/01 00:28:38;;;;;;;;;;;;;;;;;;2065985;28;20363;-78
2022/04/01 00:29:41;;;;;;;;;;;;;;;;;;2066842;28;20031;-80
2022/04/01 00:30:51;;;;;;;;;;;;;;;;;;;;;
2022/04/01 00:31:58;;;;;;;;;;;;;;;;;;2074399;28;20442;-81
2022/04/01 00:32:59;;;;;;;;;;;;;;;;;;2065914;28;19914;-79
2022/04/01 00:34:15;;;;;;;;;;;;;;;;;;2065774;28;19914;-80
2022/04/01 00:35:20;;;;;;;;;;;;;;;;;;2070784;28;20064;-79
2022/04/01 00:36:21;;;;;;;;;;;;;;;;;;2074597;28;19921;-79
2022/04/01 00:37:23;;;;;;;;;;;;;;;;;;2074724;28;20382;-80
2022/04/01 00:38:27;;;;;;;;;;;;;;;;;;2065699;28;20306;-78
2022/04/01 00:39:29;;;;;;;;;;;;;;;;;;2066259;28;19914;-78
2022/04/01 00:40:30;;;;;;;;;;;;;;;;;;2065687;28;19914;-78
2022/04/01 00:41:30;;;;;;;;;;;;;;;;;;2065928;28;19959;-80
2022/04/01 00:42:33;;;;;;;;;;;;;;;;;;2074268;28;19980;-80
2022/04/01 00:43:37;;;;;;;;;;;;;;;;;;2074374;28;20379;-79
2022/04/01 00:44:38;;;;;;;;;;;;;;;;;;2074283;28;20023;-79
2022/04/01 00:45:48;;;;;;;;;;;;;;;;;;;;;
2022/04/01 00:47:01;;;;;;;;;;;;;;;;;;2074425;28;20133;-78
2022/04/01 00:48:02;;;;;;;;;;;;;;;;;;2065669;28;20093;-79
2022/04/01 00:49:02;;;;;;;;;;;;;;;;;;2065807;28;19997;-81
2022/04/01 00:50:03;;;;;;;;;;;;;;;;;;2074451;28;20016;-80
2022/04/01 00:51:03;;;;;;;;;;;;;;;;;;2074253;28;19921;-80
2022/04/01 00:52:05;;;;;;;;;;;;;;;;;;2074645;28;20146;-78
2022/04/01 00:53:06;;;;;;;;;;;;;;;;;;2065597;28;20350;-78
2022/04/01 00:54:06;;;;;;;;;;;;;;;;;;2065889;28;19914;-80
2022/04/01 00:55:08;;;;;;;;;;;;;;;;;;2065721;28;20013;-78
2022/04/01 00:56:09;;;;;;;;;;;;;;;;;;2065732;28;19949;-79
2022/04/01 00:57:11;;;;;;;;;;;;;;;;;;2065843;28;19913;-79
2022/04/01 00:58:11;;;;;;;;;;;;;;;;;;2074259;28;20343;-79
2022/04/01 00:59:12;;;;;;;;;;;;;;;;;;2057547;28;19914;-78
2022/04/01 01:00:13;;;;;;;;;;;;;;;;;;2057928;28;19957;-79
2022/04/01 01:01:13;;;;;;;;;;;;;;;;;;2065535;28;20371;-78
2022/04/01 01:02:14;;;;;;;;;;;;;;;;;;2065712;28;19924;-78
2022/04/01 01:03:14;;;;;;;;;;;;;;;;;;2057713;28;19922;-78
2022/04/01 01:04:16;;;;;;;;;;;;;;;;;;2065866;28;20419;-78
2022/04/01 01:05:16;;;;;;;;;;;;;;;;;;2065675;28;19913;-77
2022/04/01 01:06:18;;;;;;;;;;;;;;;;;;2057713;28;19917;-77
2022/04/01 01:07:18;;;;;;;;;;;;;;;;;;2065820;28;19937;-78
2022/04/01 01:08:19;;;;;;;;;;;;;;;;;;2074370;28;19921;-78
2022/04/01 01:09:19;;;;;;;;;;;;;;;;;;2065624;28;19914;-77
2022/04/01 01:10:20;;;;;;;;;;;;;;;;;;2065783;28;19925;-77
2022/04/01 01:11:21;;;;;;;;;;;;;;;;;;2065549;28;19914;-79
2022/04/01 01:12:24;;;;;;;;;;;;;;;;;;2065683;28;19925;-80
2022/04/01 01:13:24;;;;;;;;;;;;;;;;;;2074127;28;19929;-79
2022/04/01 01:14:26;;;;;;;;;;;;;;;;;;2065497;28;19914;-80
2022/04/01 01:15:26;;;;;;;;;;;;;;;;;;2065070;28;19914;-79
2022/04/01 01:16:27;;;;;;;;;;;;;;;;;;2065660;28;20367;-79
2022/04/01 01:17:27;;;;;;;;;;;;;;;;;;2057497;28;20299;-79
2022/04/01 01:18:27;;;;;;;;;;;;;;;;;;2065650;28;19924;-76
2022/04/01 01:19:31;;;;;;;;;;;;;;;;;;2074029;28;20327;-77
2022/04/01 01:20:31;;;;;;;;;;;;;;;;;;2074213;28;19914;-79
2022/04/01 01:21:34;;;;;;;;;;;;;;;;;;2065564;28;20009;-78
2022/04/01 01:22:34;;;;;;;;;;;;;;;;;;2066115;28;19918;-78
2022/04/01 01:23:37;;;;;;;;;;;;;;;;;;2074268;28;20000;-80
2022/04/01 01:24:41;;;;;;;;;;;;;;;;;;2065450;28;19914;-79
2022/04/01 01:25:41;;;;;;;;;;;;;;;;;;2065922;28;19913;-78
2022/04/01 01:26:51;;;;;;;;;;;;;;;;;;2074102;28;19957;-79
2022/04/01 01:27:59;;;;;;;;;;;;;;;;;;2065496;28;19973;-79
2022/04/01 01:28:59;;;;;;;;;;;;;;;;;;2066683;28;19909;-79
2022/04/01 01:30:00;;;;;;;;;;;;;;;;;;2073972;28;19927;-76
2022/04/01 01:31:00;;;;;;;;;;;;;;;;;;2065572;28;19925;-78
2022/04/01 01:32:02;;;;;;;;;;;;;;;;;;2065930;28;20367;-78
2022/04/01 01:33:04;;;;;;;;;;;;;;;;;;2074405;28;20263;-80
2022/04/01 01:34:05;;;;;;;;;;;;;;;;;;2073895;28;19925;-79
2022/04/01 01:35:06;;;;;;;;;;;;;;;;;;2074117;28;19945;-78
2022/04/01 01:36:06;;;;;;;;;;;;;;;;;;2065414;28;20399;-79
2022/04/01 01:37:10;;;;;;;;;;;;;;;;;;2065395;28;19914;-78
2022/04/01 01:38:17;;;;;;;;;;;;;;;;;;2065243;28;19915;-77
2022/04/01 01:39:18;;;;;;;;;;;;;;;;;;2066393;28;19928;-78
2022/04/01 01:40:18;;;;;;;;;;;;;;;;;;2073851;28;19952;-78
2022/04/01 01:41:21;;;;;;;;;;;;;;;;;;2074193;28;19928;-78
2022/04/01 01:42:21;;;;;;;;;;;;;;;;;;2073799;28;19920;-79
2022/04/01 01:43:22;;;;;;;;;;;;;;;;;;2074032;28;20362;-78
2022/04/01 01:44:25;;;;;;;;;;;;;;;;;;2065465;28;19914;-79
2022/04/01 01:45:29;;;;;;;;;;;;;;;;;;2065180;28;20362;-78
2022/04/01 01:46:32;;;;;;;;;;;;;;;;;;2065222;28;19985;-79
2022/04/01 01:47:33;;;;;;;;;;;;;;;;;;2065782;28;20387;-78
2022/04/01 01:48:36;;;;;;;;;;;;;;;;;;2074222;28;19933;-79
2022/04/01 01:49:36;;;;;;;;;;;;;;;;;;2074001;28;19996;-79
2022/04/01 01:54:52;;;;;;;;;;;;;;;;;;2073828;28;20063;-78
2022/04/01 01:55:53;;;;;;;;;;;;;;;;;;2073711;28;19917;-78
2022/04/01 01:56:53;;;;;;;;;;;;;;;;;;2065148;28;19961;-78
2022/04/01 01:57:56;;;;;;;;;;;;;;;;;;2065142;28;19918;-79
2022/04/01 01:58:56;;;;;;;;;;;;;;;;;;2073857;28;20387;-78
2022/04/01 01:59:56;;;;;;;;;;;;;;;;;;2073612;28;19913;-79
2022/04/01 02:00:57;;;;;;;;;;;;;;;;;;2073767;28;19917;-80
2022/04/01 02:01:57;;;;;;;;;;;;;;;;;;2065080;28;20437;-80
2022/04/01 02:03:00;;;;;;;;;;;;;;;;;;2065191;28;19914;-80
2022/04/01 02:04:01;;;;;;;;;;;;;;;;;;2073697;28;19914;-80
2022/04/01 02:05:06;;;;;;;;;;;;;;;;;;2073774;28;19917;-78
2022/04/01 02:06:06;;;;;;;;;;;;;;;;;;2064950;28;19917;-79
2022/04/01 02:07:07;;;;;;;;;;;;;;;;;;2065212;28;19914;-79
2022/04/01 02:08:08;;;;;;;;;;;;;;;;;;2073665;28;19923;-79
2022/04/01 02:09:08;;;;;;;;;;;;;;;;;;2073665;28;20198;-79
2022/04/01 02:10:11;;;;;;;;;;;;;;;;;;2073687;28;19960;-81
2022/04/01 02:11:11;;;;;;;;;;;;;;;;;;2073682;28;19914;-79
2022/04/01 02:12:12;;;;;;;;;;;;;;;;;;2064935;28;19925;-78
2022/04/01 02:13:12;;;;;;;;;;;;;;;;;;2065099;28;19925;-80
2022/04/01 02:14:15;;;;;;;;;;;;;;;;;;2073570;28;19920;-80
2022/04/01 02:15:23;;;;;;;;;;;;;;;;;;2073725;28;19917;-80
2022/04/01 02:16:23;;;;;;;;;;;;;;;;;;2073684;28;19913;-80
2022/04/01 02:17:23;;;;;;;;;;;;;;;;;;2073608;28;19963;-79
2022/04/01 02:18:26;;;;;;;;;;;;;;;;;;2073695;28;20314;-79
2022/04/01 02:19:26;;;;;;;;;;;;;;;;;;2073778;28;20083;-80
2022/04/01 02:20:27;;;;;;;;;;;;;;;;;;2065157;28;19913;-80
2022/04/01 02:21:27;;;;;;;;;;;;;;;;;;2065134;28;19953;-79
2022/04/01 02:22:28;;;;;;;;;;;;;;;;;;2064944;28;19914;-79
2022/04/01 02:23:28;;;;;;;;;;;;;;;;;;2065146;28;19913;-79
2022/04/01 02:24:31;;;;;;;;;;;;;;;;;;2064956;28;19913;-80
2022/04/01 02:25:31;;;;;;;;;;;;;;;;;;2065041;28;20361;-79
2022/04/01 02:26:31;;;;;;;;;;;;;;;;;;2072897;28;19944;-79
2022/04/01 02:27:31;;;;;;;;;;;;;;;;;;2064895;28;19918;-79
2022/04/01 02:28:32;;;;;;;;;;;;;;;;;;2065065;28;20323;-79
2022/04/01 02:29:35;;;;;;;;;;;;;;;;;;2073519;28;19921;-80
2022/04/01 02:30:35;;;;;;;;;;;;;;;;;;2064694;28;19921;-80
2022/04/01 02:31:36;;;;;;;;;;;;;;;;;;2065033;28;20351;-80
2022/04/01 02:32:40;;;;;;;;;;;;;;;;;;2064884;28;19976;-78
2022/04/01 02:33:42;;;;;;;;;;;;;;;;;;2065479;28;19945;-80
2022/04/01 02:34:42;;;;;;;;;;;;;;;;;;2064820;28;19924;-80
2022/04/01 02:35:50;;;;;;;;;;;;;;;;;;2064986;28;20278;-80
2022/04/01 02:36:56;;;;;;;;;;;;;;;;;;2064875;28;19914;-80
2022/04/01 02:37:59;;;;;;;;;;;;;;;;;;2068436;28;20009;-80
2022/04/01 02:39:01;;;;;;;;;;;;;;;;;;2073544;28;19914;-81
2022/04/01 02:40:02;;;;;;;;;;;;;;;;;;2073527;28;20370;-82
2022/04/01 02:41:05;;;;;;;;;;;;;;;;;;2073464;28;20282;-80
2022/04/01 02:42:06;;;;;;;;;;;;;;;;;;2073653;28;20087;-79
2022/04/01 02:43:06;;;;;;;;;;;;;;;;;;2073432;28;20000;-79
2022/04/01 02:44:09;;;;;;;;;;;;;;;;;;2073459;28;19944;-80
2022/04/01 02:45:10;;;;;;;;;;;;;;;;;;2073561;28;19924;-80
2022/04/01 02:46:10;;;;;;;;;;;;;;;;;;2073530;28;20000;-78
2022/04/01 02:47:13;;;;;;;;;;;;;;;;;;2073617;28;19921;-79
2022/04/01 02:48:14;;;;;;;;;;;;;;;;;;2073511;28;19914;-79
2022/04/01 02:49:16;;;;;;;;;;;;;;;;;;2064776;28;19929;-79
2022/04/01 02:50:16;;;;;;;;;;;;;;;;;;2065013;28;20287;-79
2022/04/01 02:51:17;;;;;;;;;;;;;;;;;;2073400;28;20021;-78
2022/04/01 02:52:17;;;;;;;;;;;;;;;;;;2064977;28;19954;-80
2022/04/01 02:53:21;;;;;;;;;;;;;;;;;;2065060;28;20318;-78
2022/04/01 02:54:21;;;;;;;;;;;;;;;;;;2073541;28;19925;-78
2022/04/01 02:55:22;;;;;;;;;;;;;;;;;;2073588;28;20426;-78
2022/04/01 02:56:22;;;;;;;;;;;;;;;;;;2073434;28;20346;-81
2022/04/01 02:57:23;;;;;;;;;;;;;;;;;;2073505;28;20282;-80
2022/04/01 02:58:23;;;;;;;;;;;;;;;;;;2064816;28;19924;-78
2022/04/01 02:59:24;;;;;;;;;;;;;;;;;;2064846;28;20438;-78
2022/04/01 03:00:24;;;;;;;;;;;;;;;;;;2073392;28;19991;-79
2022/04/01 03:01:25;;;;;;;;;;;;;;;;;;2073539;28;19913;-78
2022/04/01 03:02:25;;;;;;;;;;;;;;;;;;2073505;28;20012;-79
2022/04/01 03:03:29;;;;;;;;;;;;;;;;;;2073561;28;19917;-78
2022/04/01 03:04:29;;;;;;;;;;;;;;;;;;2073291;28;19914;-79
2022/04/01 03:05:32;;;;;;;;;;;;;;;;;;2073371;28;20259;-79
2022/04/01 03:06:33;;;;;;;;;;;;;;;;;;2073429;28;19913;-80
2022/04/01 03:07:33;;;;;;;;;;;;;;;;;;2064802;28;19972;-78
2022/04/01 03:08:34;;;;;;;;;;;;;;;;;;2064870;28;20354;-79
2022/04/01 03:09:36;;;;;;;;;;;;;;;;;;2073478;28;19914;-78
2022/04/01 03:10:37;;;;;;;;;;;;;;;;;;2064840;28;20410;-79
2022/04/01 03:11:41;;;;;;;;;;;;;;;;;;2064884;28;19925;-76
2022/04/01 03:12:44;;;;;;;;;;;;;;;;;;2065287;28;19924;-77
2022/04/01 03:13:47;;;;;;;;;;;;;;;;;;2064833;28;19941;-79
2022/04/01 03:14:58;;;;;;;;;;;;;;;;;;;;;
2022/04/01 03:16:08;;;;;;;;;;;;;;;;;;2073530;28;19957;-81
2022/04/01 03:17:10;;;;;;;;;;;;;;;;;;2064795;28;19917;-78
2022/04/01 03:18:10;;;;;;;;;;;;;;;;;;2064797;28;20017;-79
2022/04/01 03:19:11;;;;;;;;;;;;;;;;;;2064658;28;19914;-79
2022/04/01 03:20:16;;;;;;;;;;;;;;;;;;2064897;28;19985;-79
2022/04/01 03:21:17;;;;;;;;;;;;;;;;;;2074415;28;19997;-79
2022/04/01 03:22:19;;;;;;;;;;;;;;;;;;2073375;28;19917;-79
2022/04/01 03:23:20;;;;;;;;;;;;;;;;;;2064711;28;20004;-77
2022/04/01 03:24:22;;;;;;;;;;;;;;;;;;2064826;28;20047;-78
2022/04/01 03:25:23;;;;;;;;;;;;;;;;;;2065264;28;19914;-79
2022/04/01 03:26:25;;;;;;;;;;;;;;;;;;2073501;28;20060;-79
2022/04/01 03:27:26;;;;;;;;;;;;;;;;;;2073460;28;20233;-78
2022/04/01 03:28:26;;;;;;;;;;;;;;;;;;2073405;28;19959;-79
2022/04/01 03:29:27;;;;;;;;;;;;;;;;;;2064661;28;19914;-77
2022/04/01 03:30:29;;;;;;;;;;;;;;;;;;2064823;28;19918;-78
2022/04/01 03:31:32;;;;;;;;;;;;;;;;;;2064707;28;19914;-77
2022/04/01 03:32:36;;;;;;;;;;;;;;;;;;2064734;28;20368;-79
2022/04/01 03:33:37;;;;;;;;;;;;;;;;;;2065256;28;20060;-78
2022/04/01 03:34:38;;;;;;;;;;;;;;;;;;2073604;28;20363;-80
2022/04/01 03:35:38;;;;;;;;;;;;;;;;;;2073239;28;19913;-79
2022/04/01 03:36:46;;;;;;;;;;;;;;;;;;2073345;28;19952;-78
2022/04/01 03:37:49;;;;;;;;;;;;;;;;;;2064807;28;20000;-78
2022/04/01 03:38:50;;;;;;;;;;;;;;;;;;2058331;28;19926;-79
2022/04/01 03:39:50;;;;;;;;;;;;;;;;;;2066446;28;19914;-78
2022/04/01 03:40:51;;;;;;;;;;;;;;;;;;2075090;28;19983;-78
2022/04/01 03:41:51;;;;;;;;;;;;;;;;;;2066373;28;19928;-79
2022/04/01 03:42:55;;;;;;;;;;;;;;;;;;2066322;28;20346;-79
2022/04/01 03:43:55;;;;;;;;;;;;;;;;;;2074768;28;19925;-79
2022/04/01 03:44:56;;;;;;;;;;;;;;;;;;2074790;28;19952;-78
2022/04/01 03:46:00;;;;;;;;;;;;;;;;;;2074720;28;19913;-80
2022/04/01 03:47:07;;;;;;;;;;;;;;;;;;2066278;28;19914;-79
2022/04/01 03:48:13;;;;;;;;;;;;;;;;;;2067115;28;19914;-77
2022/04/01 03:49:17;;;;;;;;;;;;;;;;;;2066220;28;19925;-78
2022/04/01 03:50:20;;;;;;;;;;;;;;;;;;2066687;28;19929;-79
2022/04/01 03:51:28;;;;;;;;;;;;;;;;;;2075088;28;19928;-79
2022/04/01 03:52:32;;;;;;;;;;;;;;;;;;2076073;28;19981;-79
2022/04/01 03:53:34;;;;;;;;;;;;;;;;;;2074946;28;19918;-79
2022/04/01 03:54:39;;;;;;;;;;;;;;;;;;2074721;28;19917;-79
2022/04/01 03:55:44;;;;;;;;;;;;;;;;;;2066177;28;19913;-79
2022/04/01 03:56:48;;;;;;;;;;;;;;;;;;2066034;28;19918;-80
2022/04/01 03:57:52;;;;;;;;;;;;;;;;;;2066531;28;20016;-80
2022/04/01 03:58:53;;;;;;;;;;;;;;;;;;2066646;28;19928;-80
2022/04/01 03:59:54;;;;;;;;;;;;;;;;;;2066168;28;19928;-80
2022/04/01 04:00:57;;;;;;;;;;;;;;;;;;2066104;28;19924;-79
2022/04/01 04:02:00;;;;;;;;;;;;;;;;;;2066478;28;19923;-79
2022/04/01 04:03:06;;;;;;;;;;;;;;;;;;2074739;28;19924;-79
2022/04/01 04:04:07;;;;;;;;;;;;;;;;;;2074667;28;19913;-79
2022/04/01 04:05:09;;;;;;;;;;;;;;;;;;2074668;28;19978;-79
2022/04/01 04:06:13;;;;;;;;;;;;;;;;;;2074777;28;19921;-79
2022/04/01 04:07:18;;;;;;;;;;;;;;;;;;2074762;28;19914;-78
2022/04/01 04:08:22;;;;;;;;;;;;;;;;;;2074674;28;19914;-78
2022/04/01 04:09:40;;;;;;;;;;;;;;;;;;2074723;28;19940;-79
2022/04/01 04:11:02;;;;;;;;;;;;;;;;;;2074916;28;20001;-80
2022/04/01 04:12:05;;;;;;;;;;;;;;;;;;2066189;28;19949;-80
2022/04/01 04:13:12;;;;;;;;;;;;;;;;;;2066165;28;19914;-80
2022/04/01 04:14:27;;;;;;;;;;;;;;;;;;2077397;28;19945;-80
2022/04/01 04:15:28;;;;;;;;;;;;;;;;;;2074617;28;20015;-80
2022/04/01 04:16:46;;;;;;;;;;;;;;;;;;;;;
2022/04/01 04:17:51;;;;;;;;;;;;;;;;;;2074746;28;20009;-79
2022/04/01 04:19:00;;;;;;;;;;;;;;;;;;2065589;28;19914;-78
2022/04/01 04:20:02;;;;;;;;;;;;;;;;;;2067566;28;20270;-80
2022/04/01 04:21:26;;;;;;;;;;;;;;;;;;2065923;28;19917;-79
2022/04/01 04:22:43;;;;;;;;;;;;;;;;;;;;;
2022/04/01 04:25:27;;;;;;;;;;;;;;;;;;2063857;28;20374;-79
2022/04/01 04:27:16;;;;;;;;;;;;;;;;;;2073707;28;20015;-79
2022/04/01 04:28:44;;;;;;;;;;;;;;;;;;;;;
2022/04/01 04:29:58;;;;;;;;;;;;;;;;;;2074732;28;19925;-80
2022/04/01 04:31:08;;;;;;;;;;;;;;;;;;2074450;28;20012;-80
2022/04/01 04:32:30;;;;;;;;;;;;;;;;;;2074546;28;19972;-81
2022/04/01 04:35:14;;;;;;;;;;;;;;;;;;2063896;28;19913;-81
2022/04/01 04:36:34;;;;;;;;;;;;;;;;;;2074758;28;20031;-79
2022/04/01 04:37:52;;;;;;;;;;;;;;;;;;2077155;28;19957;-81
2022/04/01 04:39:16;;;;;;;;;;;;;;;;;;2074510;28;20421;-79
2022/04/01 04:40:21;;;;;;;;;;;;;;;;;;2073954;28;20009;-78
2022/04/01 04:41:23;;;;;;;;;;;;;;;;;;2077293;28;19996;-78
2022/04/01 04:42:31;;;;;;;;;;;;;;;;;;2074396;28;19940;-78
2022/04/01 04:43:42;;;;;;;;;;;;;;;;;;2075357;28;19924;-78
2022/04/01 04:44:44;;;;;;;;;;;;;;;;;;2074344;28;19929;-78
2022/04/01 04:45:49;;;;;;;;;;;;;;;;;;2074370;28;20270;-79
2022/04/01 04:46:52;;;;;;;;;;;;;;;;;;2074392;28;19913;-78
2022/04/01 04:48:10;;;;;;;;;;;;;;;;;;2065907;28;19980;-78
2022/04/01 04:49:27;;;;;;;;;;;;;;;;;;;;;
2022/04/01 04:50:28;;;;;;;;;;;;;;;;;;2069430;28;19914;-78
2022/04/01 04:51:36;;;;;;;;;;;;;;;;;;2074214;28;20374;-79
2022/04/01 04:52:38;;;;;;;;;;;;;;;;;;2074413;28;19913;-78
2022/04/01 04:53:39;;;;;;;;;;;;;;;;;;2074138;28;19925;-78
2022/04/01 04:54:40;;;;;;;;;;;;;;;;;;2073192;28;19961;-78
2022/04/01 04:55:41;;;;;;;;;;;;;;;;;;2064614;28;19964;-80
2022/04/01 04:56:41;;;;;;;;;;;;;;;;;;2064618;28;19914;-77
2022/04/01 04:57:43;;;;;;;;;;;;;;;;;;2065424;28;20335;-78
2022/04/01 04:58:47;;;;;;;;;;;;;;;;;;2065518;28;19988;-79
2022/04/01 04:59:57;;;;;;;;;;;;;;;;;;2065905;28;20049;-78
2022/04/01 05:03:07;;;;;;;;;;;;;;;;;;2052874;28;19918;-80
2022/04/01 05:04:26;;;;;;;;;;;;;;;;;;2072443;28;19949;-79
2022/04/01 05:05:29;;;;;;;;;;;;;;;;;;2074063;28;19913;-78
2022/04/01 05:06:32;;;;;;;;;;;;;;;;;;2065523;28;20355;-80
2022/04/01 05:07:33;;;;;;;;;;;;;;;;;;2065610;28;19921;-79
2022/04/01 05:08:52;;;;;;;;;;;;;;;;;;2074014;28;19914;-79
2022/04/01 05:09:56;;;;;;;;;;;;;;;;;;2074127;28;19913;-78
2022/04/01 05:11:05;;;;;;;;;;;;;;;;;;2074035;28;20386;-78
2022/04/01 05:12:12;;;;;;;;;;;;;;;;;;2074099;28;20015;-80
2022/04/01 05:13:31;;;;;;;;;;;;;;;;;;2074214;28;19924;-78
2022/04/01 05:14:50;;;;;;;;;;;;;;;;;;2065669;28;19924;-80
2022/04/01 05:15:55;;;;;;;;;;;;;;;;;;2068113;28;19918;-79
2022/04/01 05:17:07;;;;;;;;;;;;;;;;;;2074237;28;20389;-78
2022/04/01 05:18:32;;;;;;;;;;;;;;;;;;2064690;28;19967;-81
2022/04/01 05:19:36;;;;;;;;;;;;;;;;;;2068078;28;19975;-80
2022/04/01 05:20:38;;;;;;;;;;;;;;;;;;2073095;28;19914;-80
2022/04/01 05:22:13;;;;;;;;;;;;;;;;;;2064439;28;20000;-79
2022/04/01 05:23:15;;;;;;;;;;;;;;;;;;2040177;29;20431;-79
2022/04/01 05:24:17;;;;;;;;;;;;;;;;;;2032404;29;19958;-79
2022/04/01 05:25:20;;;;;;;;;;;;;;;;;;2043310;28;19925;-80
2022/04/01 05:26:23;;;;;;;;;;;;;;;;;;2073046;28;20134;-79
2022/04/01 05:27:37;;;;;;;;;;;;;;;;;;2072965;28;19914;-79
2022/04/01 05:28:45;;;;;;;;;;;;;;;;;;2064470;28;19925;-82
2022/04/01 05:29:47;;;;;;;;;;;;;;;;;;2057454;28;20009;-78
2022/04/01 05:31:18;;;;;;;;;;;;;;;;;;2064446;28;19929;-79
2022/04/01 05:32:19;;;;;;;;;;;;;;;;;;2064589;28;20295;-80
2022/04/01 05:33:28;;;;;;;;;;;;;;;;;;2064416;28;19914;-80
2022/04/01 05:34:40;;;;;;;;;;;;;;;;;;2073123;28;19947;-82
2022/04/01 05:35:51;;;;;;;;;;;;;;;;;;2073065;28;19924;-80
2022/04/01 05:37:03;;;;;;;;;;;;;;;;;;2072983;28;19921;-81
2022/04/01 05:38:04;;;;;;;;;;;;;;;;;;2064128;28;19924;-78
2022/04/01 05:39:12;;;;;;;;;;;;;;;;;;2064150;28;19918;-80
2022/04/01 05:40:14;;;;;;;;;;;;;;;;;;2065721;28;19914;-79
2022/04/01 05:41:19;;;;;;;;;;;;;;;;;;2064216;28;19918;-78
2022/04/01 05:42:30;;;;;;;;;;;;;;;;;;2066012;28;19922;-78
2022/04/01 05:43:39;;;;;;;;;;;;;;;;;;2074504;28;19913;-80
2022/04/01 05:46:03;;;;;;;;;;;;;;;;;;2048755;29;19958;-79
2022/04/01 05:47:06;;;;;;;;;;;;;;;;;;2068594;28;19925;-80
2022/04/01 05:48:20;;;;;;;;;;;;;;;;;;2065346;28;20387;-78
2022/04/01 05:49:24;;;;;;;;;;;;;;;;;;2067165;28;19960;-80
2022/04/01 05:50:40;;;;;;;;;;;;;;;;;;;;;
2022/04/01 05:51:55;;;;;;;;;;;;;;;;;;;;;
2022/04/01 05:53:14;;;;;;;;;;;;;;;;;;2073910;28;19913;-80
2022/04/01 05:54:22;;;;;;;;;;;;;;;;;;2065329;28;19922;-80
2022/04/01 05:55:26;;;;;;;;;;;;;;;;;;2066246;28;20299;-80
2022/04/01 05:56:48;;;;;;;;;;;;;;;;;;2073898;28;19924;-79
2022/04/01 05:57:55;;;;;;;;;;;;;;;;;;2073298;28;19913;-83
2022/04/01 05:59:15;;;;;;;;;;;;;;;;;;2073931;28;19925;-83
2022/04/01 06:00:23;;;;;;;;;;;;;;;;;;2072881;28;19913;-79
2022/04/01 06:01:49;;;;;;;;;;;;;;;;;;2064878;28;19918;-79
2022/04/01 06:03:08;;;;;;;;;;;;;;;;;;2068665;28;19914;-79
2022/04/01 06:04:16;;;;;;;;;;;;;;;;;;2073591;28;20369;-79
2022/04/01 06:05:27;;;;;;;;;;;;;;;;;;2073950;28;19914;-79
2022/04/01 06:07:03;;;;;;;;;;;;;;;;;;2064979;28;20366;-79
2022/04/01 06:08:11;;;;;;;;;;;;;;;;;;2045185;29;19945;-79
2022/04/01 06:09:22;;;;;;;;;;;;;;;;;;2040862;29;19921;-80
2022/04/01 06:10:42;;;;;;;;;;;;;;;;;;2043472;28;20372;-80
2022/04/01 06:11:52;;;;;;;;;;;;;;;;;;2059279;28;19925;-80
2022/04/01 06:13:04;;;;;;;;;;;;;;;;;;2065076;28;19936;-81
2022/04/01 06:14:10;;;;;;;;;;;;;;;;;;2066550;28;20004;-80
2022/04/01 06:15:22;;;;;;;;;;;;;;;;;;2064711;28;19921;-81
2022/04/01 06:16:26;;;;;;;;;;;;;;;;;;2064957;28;19953;-81
2022/04/01 06:17:32;;;;;;;;;;;;;;;;;;2076673;28;19917;-79
2022/04/01 06:18:48;;;;;;;;;;;;;;;;;;2090082;28;19923;-79
2022/04/01 06:19:51;;;;;;;;;;;;;;;;;;2081381;28;20152;-84
2022/04/01 06:20:59;;;;;;;;;;;;;;;;;;2081591;28;20000;-86
2022/04/01 06:22:03;;;;;;;;;;;;;;;;;;2081282;28;20408;-83
2022/04/01 06:23:30;;;;;;;;;;;;;;;;;;2081788;28;20287;-79
2022/04/01 06:24:30;;;;;;;;;;;;;;;;;;2059120;28;19922;-79
2022/04/01 06:25:33;;;;;;;;;;;;;;;;;;2090144;28;19916;-80
2022/04/01 06:26:36;;;;;;;;;;;;;;;;;;2081378;28;20358;-79
2022/04/01 06:27:41;;;;;;;;;;;;;;;;;;2081533;28;19913;-82
2022/04/01 06:28:49;;;;;;;;;;;;;;;;;;2089844;28;19913;-79
2022/04/01 06:30:12;;;;;;;;;;;;;;;;;;2090031;28;19924;-80
2022/04/01 06:31:20;;;;;;;;;;;;;;;;;;2089971;28;19986;-80
2022/04/01 06:32:28;;;;;;;;;;;;;;;;;;2081219;28;19917;-78
2022/04/01 06:33:35;;;;;;;;;;;;;;;;;;2082215;28;20359;-81
2022/04/01 06:35:01;;;;;;;;;;;;;;;;;;2081044;28;20416;-81
2022/04/01 06:36:10;;;;;;;;;;;;;;;;;;2084830;28;20395;-80
2022/04/01 06:37:20;;;;;;;;;;;;;;;;;;2081288;28;19956;-80
2022/04/01 06:38:27;;;;;;;;;;;;;;;;;;2075085;28;20283;-80
2022/04/01 06:39:36;;;;;;;;;;;;;;;;;;2068375;28;20310;-80
2022/04/01 06:40:58;;;;;;;;;;;;;;;;;;2073949;28;19913;-86
2022/04/01 06:41:59;;;;;;;;;;;;;;;;;;2073125;28;19953;-79
2022/04/01 06:42:59;;;;;;;;;;;;;;;;;;2073286;28;19913;-76
2022/04/01 06:44:00;;;;;;;;;;;;;;;;;;2081451;28;19924;-81
2022/04/01 06:45:00;;;;;;;;;;;;;;;;;;2081625;28;20011;-79
2022/04/01 06:46:03;;;;;;;;;;;;;;;;;;2072893;28;20386;-79
2022/04/01 06:47:09;;;;;;;;;;;;;;;;;;2072916;28;19918;-79
2022/04/01 06:48:12;;;;;;;;;;;;;;;;;;2072923;28;19952;-80
2022/04/01 06:49:15;;;;;;;;;;;;;;;;;;2073046;28;20290;-80
2022/04/01 06:51:39;;;;;;;;;;;;;;;;;;2071067;28;19976;-81
2022/04/01 06:52:42;;;;;;;;;;;;;;;;;;2072719;28;19977;-80
2022/04/01 06:53:45;;;;;;;;;;;;;;;;;;2073033;28;20374;-80
2022/04/01 06:54:54;;;;;;;;;;;;;;;;;;2064799;28;20334;-80
2022/04/01 06:56:06;;;;;;;;;;;;;;;;;;2067911;28;19980;-80
2022/04/01 06:57:27;;;;;;;;;;;;;;;;;;2076129;28;19956;-80
2022/04/01 06:58:30;;;;;;;;;;;;;;;;;;2075879;28;19913;-80
2022/04/01 07:01:14;;;;;;;;;;;;;;;;;;2076184;28;19925;-81
2022/04/01 07:02:24;;;;;;;;;;;;;;;;;;;;;
2022/04/01 07:03:35;;;;;;;;;;;;;;;;;;;;;
2022/04/01 07:05:05;;;;;;;;;;;;;;;;;;2074667;28;19975;-80
2022/04/01 07:06:25;;;;;;;;;;;;;;;;;;2075960;28;20346;-79
2022/04/01 07:07:34;;;;;;;;;;;;;;;;;;2073574;28;19924;-80
2022/04/01 07:09:59;;;;;;;;;;;;;;;;;;2066067;28;19971;-80
2022/04/01 07:11:09;;;;;;;;;;;;;;;;;;;;;
2022/04/01 07:12:15;;;;;;;;;;;;;;;;;;2066267;28;20350;-81
2022/04/01 07:13:33;;;;;;;;;;;;;;;;;;2074040;28;19935;-80
2022/04/01 07:14:42;;;;;;;;;;;;;;;;;;2074778;28;20271;-80
2022/04/01 07:15:50;;;;;;;;;;;;;;;;;;2074744;28;19918;-80
2022/04/01 07:17:03;;;;;;;;;;;;;;;;;;;;;
2022/04/01 07:18:08;;;;;;;;;;;;;;;;;;2060046;28;20201;-81
2022/04/01 07:19:17;;;;;;;;;;;;;;;;;;2074993;28;19929;-80
2022/04/01 07:20:25;;;;;;;;;;;;;;;;;;2074648;28;20000;-79
2022/04/01 07:21:43;;;;;;;;;;;;;;;;;;2075939;28;19927;-81
2022/04/01 07:22:53;;;;;;;;;;;;;;;;;;2075192;28;20244;-80
2022/04/01 07:24:03;;;;;;;;;;;;;;;;;;2075013;28;20375;-80
2022/04/01 07:25:36;;;;;;;;;;;;;;;;;;;;;
2022/04/01 07:26:59;;;;;;;;;;;;;;;;;;2073017;28;19925;-82
2022/04/01 07:28:02;;;;;;;;;;;;;;;;;;2079238;28;20011;-80
2022/04/01 07:29:22;;;;;;;;;;;;;;;;;;2083200;28;19939;-83
2022/04/01 07:30:27;;;;;;;;;;;;;;;;;;2084909;28;19932;-82
2022/04/01 07:33:14;;;;;;;;;;;;;;;;;;2083116;28;19913;-79
2022/04/01 07:35:54;;;;;;;;;;;;;;;;;;2083015;28;19975;-80
2022/04/01 07:37:05;;;;;;;;;;;;;;;;;;2083112;28;19921;-82
2022/04/01 07:38:38;;;;;;;;;;;;;;;;;;;;;
2022/04/01 07:40:05;;;;;;;;;;;;;;;;;;2078129;28;19936;-88
2022/04/01 07:41:25;;;;;;;;;;;;;;;;;;;;;
2022/04/01 07:42:41;;;;;;;;;;;;;;;;;;2077127;28;20060;-86
2022/04/01 07:43:45;;;;;;;;;;;;;;;;;;2074411;28;19920;-80
2022/04/01 07:44:57;;;;;;;;;;;;;;;;;;2074279;28;19960;-80
2022/04/01 07:46:16;;;;;;;;;;;;;;;;;;2077068;28;19924;-78
2022/04/01 07:47:18;;;;;;;;;;;;;;;;;;2085720;28;19920;-80
2022/04/01 07:48:47;;;;;;;;;;;;;;;;;;2082925;28;19913;-84
2022/04/01 07:49:53;;;;;;;;;;;;;;;;;;2085818;28;19975;-78
2022/04/01 07:50:56;;;;;;;;;;;;;;;;;;2074317;28;19924;-79
2022/04/01 07:51:57;;;;;;;;;;;;;;;;;;2066436;28;19914;-81
2022/04/01 07:53:02;;;;;;;;;;;;;;;;;;2074383;28;19921;-79
2022/04/01 07:54:10;;;;;;;;;;;;;;;;;;2074464;28;19921;-80
2022/04/01 07:55:37;;;;;;;;;;;;;;;;;;2076137;28;19914;-79
2022/04/01 07:56:46;;;;;;;;;;;;;;;;;;2082281;28;19913;-79